Extreme high temperature From: 12-08-2020 13:05 Until: 13-08-2020 17:00 warning for: Extreme high temperature Level: Orange info button
dansk:
Kategori 2 varsel: DMI forventer 28 grader eller mere i de kommende 1 dage.
Gældende for:
Sydvestjylland, Billund, Haderslev, Tønder og Aabenraa.

Hedebølge kan være farlige for små- og spædbørn, ældre samt personer, der lider at kroniske sygdomme. Drik rigeligt, og hold kroppen afkølet.

english:
Category 2: DMI expects heatwave with temperatures higher than 28 degs in 1 days.
Valid for:
Sydvestjylland, Billund, Haderslev, Tønder and Aabenraa.

Heat waves can be dangerous, especially to infants and young children, elderly and people with chronic diseases. 


Vores vejrinfo findes også på:

UK Metoffice

European Weather Network

Weather Underground



Stationer ""tæt på"" METAR Rapporter

   
EKEB - Esbjerg, Denmark
Afstand fra denne vejrstation: NNV 29 km
Opdateret: 13-08-2020 12:20
Klart  
Klart  
   Vind fra: ØNØ 3.1 m/s
Vind fra: ØNØ 3.1 m/s
Temperatur: 26°C
Dugpunkt: 15°C
Luftfugtighed: 51%
Barometer: 1016 hPa
Skyer: Klart
Sigtbarhed: More than 10 km
Sky detaljer: Klart
EKEB 131020Z AUTO 07006KT 040V120 9999 NCD 26/15 Q1016
EKSP - Skrydstrup(Dan-A, Denmark
Afstand fra denne vejrstation: Ø 35 km
Opdateret: 13-08-2020 12:20
Klart  
Klart  
   Vind fra: East 5.7 m/s
Vind fra: East 5.7 m/s
Temperatur: 25°C
Dugpunkt: 13°C
Luftfugtighed: 47%
Barometer: 1017 hPa
Sigtbarhed: More than 10 km
Sky detaljer: Klart
EKSP 131020Z 10011KT 070V140 CAVOK 25/13 Q1017 NOSIG
EKBI - Billund Airport, Denmark
Afstand fra denne vejrstation: NNØ 56 km
Opdateret: 13-08-2020 12:20
Klart  
Klart  
   Vind fra: ØSØ 3.1 m/s
Vind fra: ØSØ 3.1 m/s
Temperatur: 25°C
Dugpunkt: 13°C
Luftfugtighed: 47%
Barometer: 1017 hPa
Skyer: Klart
Sigtbarhed: More than 10 km
Sky detaljer: Klart
EKBI 131020Z AUTO 11006KT 070V150 9999 NCD 25/13 Q1017
EKSB - Sonderborg Airpo, Denmark
Afstand fra denne vejrstation: ØSØ 76 km
Opdateret: 13-08-2020 12:20
Klart  
Klart  
   Vind fra: East 3.6 m/s
Vind fra: East 3.6 m/s
Temperatur: 24°C
Dugpunkt: 16°C
Luftfugtighed: 61%
Barometer: 1016 hPa
Sigtbarhed: More than 10 km
Sky detaljer: Klart
EKSB 131020Z 10007KT 070V130 CAVOK 24/16 Q1016
EKVD - Vamdrup (aut/man), Denmark
Afstand fra denne vejrstation: ØNØ 41 km
Opdateret: 13-08-2020 11:50
Klart  
Klart  
   Vind fra: ØSØ 4.6 m/s
Vind fra: ØSØ 4.6 m/s
Temperatur: 25°C
Dugpunkt: 12°C
Luftfugtighed: 44%
Barometer: 1017 hPa
Sigtbarhed: More than 10 km
Sky detaljer: Klart
EKVD 130950Z 12009KT 090V150 CAVOK 25/12 Q1017
EDXW - Westerland/Sylt, Germany
Afstand fra denne vejrstation: SSV 47 km
Opdateret: 13-08-2020 12:20
Klart  
Klart  
   Vind fra: East 5.7 m/s
Vind fra: East 5.7 m/s
Temperatur: 26°C
Dugpunkt: 17°C
Luftfugtighed: 58%
Barometer: 1016 hPa
Sigtbarhed: More than 10 km
Sky detaljer: Klart
EDXW 131020Z 09011KT CAVOK 26/17 Q1016

Original script by  Saratoga-weather.org Adapted for the template by  Weerstation Leuven

Der anvendes følgende:

Vejrstation
Davis VP2

Vejrprogram
Meteohub

Server
RaspberryPI 3 model B

Davis VP2

Meteohub

RaspberryPI 3 model B